Time;durP1;ratioP1;P1;durP2;ratioP2;P2;SDS_P1;SDS_P2;PMS_P1;PMS_P2;Temp;Humidity;BMP_temperature;BMP_pressure;BME280_temperature;BME280_humidity;BME280_pressure;Samples;Min_cycle;Max_cycle;Signal;HPM_P1;HPM_P2
2022/06/07 00:00:45;;;;;;;0.40;0.40;;;12.80;86.40;;;;;;5030145;28;20688;-70
2022/06/07 00:03:11;;;;;;;0.45;0.45;;;12.80;86.80;;;;;;5025845;28;20038;-70
2022/06/07 00:05:39;;;;;;;0.10;0.10;;;12.80;86.90;;;;;;5022797;28;20041;-68
2022/06/07 00:08:05;;;;;;;0.00;0.00;;;12.90;86.50;;;;;;5016193;28;20042;-69
2022/06/07 00:10:30;;;;;;;1.10;0.75;;;12.90;86.50;;;;;;5026047;28;20052;-68
2022/06/07 00:12:56;;;;;;;0.10;0.10;;;12.90;86.20;;;;;;5030422;28;20053;-69
2022/06/07 00:15:22;;;;;;;0.00;0.00;;;12.80;86.20;;;;;;5030515;28;20134;-68
2022/06/07 00:17:48;;;;;;;0.00;0.00;;;12.80;85.70;;;;;;5014894;28;20475;-69
2022/06/07 00:20:14;;;;;;;0.00;0.00;;;12.80;85.60;;;;;;5016596;28;20508;-68
2022/06/07 00:22:41;;;;;;;0.00;0.00;;;12.90;85.80;;;;;;5030309;28;20076;-69
2022/06/07 00:25:09;;;;;;;0.00;0.00;;;12.80;85.30;;;;;;5040260;28;20038;-69
2022/06/07 00:27:34;;;;;;;0.10;0.10;;;12.90;85.10;;;;;;5036947;28;20082;-69
2022/06/07 00:30:01;;;;;;;0.00;0.00;;;12.90;85.40;;;;;;5031115;28;20041;-70
2022/06/07 00:32:27;;;;;;;0.00;0.00;;;12.90;84.60;;;;;;5019385;28;20415;-69
2022/06/07 00:34:52;;;;;;;0.00;0.00;;;12.90;84.70;;;;;;5026179;28;20041;-68
2022/06/07 00:37:18;;;;;;;0.00;0.00;;;12.90;85.10;;;;;;5024103;28;20045;-68
2022/06/07 00:39:44;;;;;;;0.28;0.28;;;12.80;85.70;;;;;;5030956;28;20049;-68
2022/06/07 00:42:10;;;;;;;0.10;0.10;;;12.80;86.10;;;;;;5029871;28;20041;-69
2022/06/07 00:44:44;;;;;;;0.00;0.00;;;12.90;86.00;;;;;;5031268;28;20037;-68
2022/06/07 00:47:23;;;;;;;0.00;0.00;;;12.90;86.00;;;;;;5029962;28;20037;-68
2022/06/07 00:49:50;;;;;;;0.00;0.00;;;12.80;86.00;;;;;;5040687;28;20052;-68
2022/06/07 00:52:18;;;;;;;0.22;0.22;;;12.90;85.90;;;;;;5023453;28;20577;-69
2022/06/07 00:54:44;;;;;;;0.00;0.00;;;12.80;85.40;;;;;;5012367;28;20132;-69
2022/06/07 00:57:10;;;;;;;0.15;0.15;;;12.80;85.00;;;;;;5035861;28;20117;-69
2022/06/07 00:59:36;;;;;;;0.10;0.10;;;12.90;85.20;;;;;;5026097;28;20057;-71
2022/06/07 01:02:03;;;;;;;0.10;0.10;;;12.90;85.60;;;;;;5036726;28;20569;-69
2022/06/07 01:04:29;;;;;;;0.00;0.00;;;12.90;85.60;;;;;;5030728;28;20778;-69
2022/06/07 01:12:41;;;;;;;15.07;0.93;;;12.90;85.90;;;;;;5019384;28;20053;-69
2022/06/07 01:15:08;;;;;;;0.30;0.30;;;12.90;85.70;;;;;;5045245;28;20048;-70
2022/06/07 01:17:36;;;;;;;0.00;0.00;;;13.00;85.50;;;;;;5025162;28;20045;-69
2022/06/07 01:20:03;;;;;;;0.20;0.20;;;13.00;85.30;;;;;;5028898;28;20383;-69
2022/06/07 01:22:28;;;;;;;0.00;0.00;;;13.00;84.90;;;;;;5024976;28;20041;-69
2022/06/07 01:24:54;;;;;;;0.00;0.00;;;12.90;84.80;;;;;;5012632;28;20037;-70
2022/06/07 01:27:20;;;;;;;0.05;0.05;;;12.90;84.60;;;;;;5039903;28;20124;-69
2022/06/07 01:29:46;;;;;;;0.08;0.08;;;12.90;84.70;;;;;;5050003;28;20512;-70
2022/06/07 01:32:12;;;;;;;4.75;1.77;;;12.90;84.70;;;;;;5047094;28;20041;-69
2022/06/07 01:34:43;;;;;;;0.00;0.00;;;13.00;85.00;;;;;;5045773;28;20124;-69
2022/06/07 01:37:12;;;;;;;0.00;0.00;;;13.00;84.40;;;;;;5027377;28;20094;-69
2022/06/07 01:42:22;;;;;;;0.05;0.05;;;13.10;84.40;;;;;;5020580;28;20379;-69
2022/06/07 01:44:49;;;;;;;0.00;0.00;;;13.10;84.40;;;;;;5029896;28;20080;-70
2022/06/07 01:47:18;;;;;;;0.10;0.10;;;13.00;84.20;;;;;;5015417;28;20041;-69
2022/06/07 01:49:44;;;;;;;0.10;0.10;;;13.00;84.00;;;;;;5028188;28;20124;-69
2022/06/07 01:52:11;;;;;;;0.63;0.63;;;13.00;84.00;;;;;;5029120;28;20124;-69
2022/06/07 01:54:38;;;;;;;0.10;0.10;;;13.00;84.00;;;;;;5012325;28;20068;-69
2022/06/07 01:57:05;;;;;;;0.08;0.08;;;13.00;84.00;;;;;;5025626;28;20499;-69
2022/06/07 01:59:32;;;;;;;0.17;0.17;;;13.10;84.10;;;;;;5011090;28;20513;-69
2022/06/07 02:01:58;;;;;;;0.00;0.00;;;13.00;84.10;;;;;;5025845;28;20164;-70
2022/06/07 02:04:24;;;;;;;0.00;0.00;;;12.90;84.40;;;;;;5029355;28;20049;-70
2022/06/07 02:06:50;;;;;;;0.30;0.30;;;13.00;84.30;;;;;;5015125;28;20038;-70
2022/06/07 02:09:17;;;;;;;0.00;0.00;;;13.00;84.50;;;;;;5049033;28;20048;-69
2022/06/07 02:11:42;;;;;;;0.32;0.28;;;13.00;84.70;;;;;;5035232;28;20053;-69
2022/06/07 02:14:09;;;;;;;0.00;0.00;;;13.00;84.00;;;;;;5028864;28;20041;-70
2022/06/07 02:16:35;;;;;;;0.28;0.28;;;13.00;83.90;;;;;;5017233;28;20053;-70
2022/06/07 02:19:02;;;;;;;0.00;0.00;;;13.00;83.90;;;;;;5029052;28;20041;-70
2022/06/07 02:21:28;;;;;;;0.08;0.08;;;13.00;83.60;;;;;;5018738;28;20117;-70
2022/06/07 02:23:54;;;;;;;0.00;0.00;;;13.00;83.70;;;;;;5009531;28;20128;-70
2022/06/07 02:26:26;;;;;;;0.03;0.03;;;13.00;83.60;;;;;;5010118;28;20041;-70
2022/06/07 02:29:13;;;;;;;0.10;0.10;;;13.10;83.60;;;;;;5027356;28;20053;-70
2022/06/07 02:31:42;;;;;;;0.00;0.00;;;13.10;83.30;;;;;;5032763;28;20041;-70
2022/06/07 02:34:09;;;;;;;0.00;0.00;;;13.10;83.20;;;;;;5028947;28;20054;-70
2022/06/07 02:36:35;;;;;;;0.00;0.00;;;13.10;82.40;;;;;;5024917;28;20044;-70
2022/06/07 02:39:02;;;;;;;0.00;0.00;;;13.10;82.80;;;;;;5046207;28;20053;-70
2022/06/07 02:41:31;;;;;;;0.00;0.00;;;13.10;82.40;;;;;;5029254;28;20164;-70
2022/06/07 02:43:57;;;;;;;0.15;0.15;;;13.10;81.80;;;;;;5008527;28;20515;-70
2022/06/07 02:46:23;;;;;;;0.00;0.00;;;13.10;80.80;;;;;;5011268;28;20038;-71
2022/06/07 02:48:48;;;;;;;0.00;0.00;;;13.10;81.10;;;;;;5009360;28;20049;-70
2022/06/07 02:51:14;;;;;;;0.05;0.05;;;13.10;81.20;;;;;;5035238;28;20052;-70
2022/06/07 02:53:40;;;;;;;0.00;0.00;;;13.10;81.80;;;;;;5029840;28;20138;-70
2022/06/07 02:56:05;;;;;;;0.98;0.80;;;13.10;82.60;;;;;;5024468;28;20044;-70
2022/06/07 02:58:31;;;;;;;0.00;0.00;;;12.90;84.10;;;;;;5024249;28;20057;-70
2022/06/07 03:01:00;;;;;;;0.00;0.00;;;12.60;85.80;;;;;;5017094;28;20030;-70
2022/06/07 03:03:27;;;;;;;0.10;0.10;;;12.60;86.60;;;;;;5039557;28;20494;-70
2022/06/07 03:05:53;;;;;;;0.00;0.00;;;12.50;87.00;;;;;;5044271;28;20052;-70
2022/06/07 03:08:20;;;;;;;0.05;0.05;;;12.40;87.60;;;;;;5043601;28;20045;-70
2022/06/07 03:10:47;;;;;;;0.00;0.00;;;12.20;88.90;;;;;;5028562;28;20065;-70
2022/06/07 03:13:14;;;;;;;0.20;0.20;;;12.20;89.20;;;;;;5008511;28;20503;-70
2022/06/07 03:15:40;;;;;;;0.00;0.00;;;12.10;90.20;;;;;;5014678;28;20499;-70
2022/06/07 03:18:07;;;;;;;0.73;0.73;;;12.00;90.30;;;;;;5011505;28;20561;-70
2022/06/07 03:20:33;;;;;;;0.00;0.00;;;11.90;90.40;;;;;;5008516;28;20371;-70
2022/06/07 03:22:58;;;;;;;0.45;0.45;;;11.80;90.80;;;;;;5023985;28;20041;-70
2022/06/07 03:25:25;;;;;;;0.00;0.00;;;11.70;90.80;;;;;;5029561;28;20045;-71
2022/06/07 03:27:51;;;;;;;0.05;0.05;;;11.70;90.80;;;;;;5010996;28;20052;-71
2022/06/07 03:30:17;;;;;;;0.03;0.03;;;11.60;90.60;;;;;;5008939;28;20042;-70
2022/06/07 03:32:44;;;;;;;0.00;0.00;;;11.60;90.60;;;;;;5013800;28;20600;-70
2022/06/07 03:35:11;;;;;;;0.00;0.00;;;11.50;91.00;;;;;;5027178;28;20045;-70
2022/06/07 03:37:37;;;;;;;0.30;0.30;;;11.50;91.30;;;;;;5020989;28;20045;-70
2022/06/07 03:40:09;;;;;;;0.10;0.10;;;11.50;91.50;;;;;;5028330;28;20045;-70
2022/06/07 03:42:34;;;;;;;0.00;0.00;;;11.50;91.40;;;;;;5023193;28;20057;-71
2022/06/07 03:45:00;;;;;;;0.00;0.00;;;11.60;91.20;;;;;;5013403;28;20116;-70
2022/06/07 03:47:26;;;;;;;0.10;0.10;;;11.60;91.30;;;;;;5013659;28;20057;-71
2022/06/07 03:49:52;;;;;;;0.10;0.10;;;11.60;91.50;;;;;;5011712;28;20050;-70
2022/06/07 03:52:18;;;;;;;0.10;0.10;;;11.60;91.50;;;;;;5017623;28;20724;-70
2022/06/07 03:54:44;;;;;;;0.00;0.00;;;11.60;91.70;;;;;;5031512;28;20037;-70
2022/06/07 03:57:11;;;;;;;0.00;0.00;;;11.60;91.70;;;;;;5035431;28;20037;-70
2022/06/07 03:59:37;;;;;;;0.10;0.10;;;11.70;91.40;;;;;;5030143;28;20083;-70
2022/06/07 04:02:04;;;;;;;0.00;0.00;;;11.70;91.00;;;;;;5032641;28;20069;-71
2022/06/07 04:04:30;;;;;;;0.15;0.15;;;11.70;90.60;;;;;;5012890;28;20454;-71
2022/06/07 04:09:40;;;;;;;0.05;0.05;;;11.80;89.60;;;;;;5016922;28;20049;-70
2022/06/07 04:12:11;;;;;;;0.10;0.10;;;11.80;88.60;;;;;;5049688;28;20068;-68
2022/06/07 04:14:38;;;;;;;0.05;0.05;;;11.80;88.30;;;;;;5031593;28;20049;-69
2022/06/07 04:17:05;;;;;;;0.28;0.28;;;11.90;87.60;;;;;;5030321;28;20037;-69
2022/06/07 04:19:32;;;;;;;0.05;0.05;;;11.90;86.90;;;;;;5014642;28;20383;-69
2022/06/07 04:21:58;;;;;;;0.10;0.10;;;11.90;86.50;;;;;;5049832;28;20464;-69
2022/06/07 04:24:23;;;;;;;0.03;0.03;;;12.00;86.00;;;;;;5031667;28;20072;-69
2022/06/07 04:26:49;;;;;;;0.10;0.10;;;12.00;86.30;;;;;;5030261;28;20045;-69
2022/06/07 04:29:15;;;;;;;0.00;0.00;;;12.00;86.30;;;;;;5045327;28;20064;-69
2022/06/07 04:31:40;;;;;;;0.00;0.00;;;12.10;86.20;;;;;;5045265;28;20076;-70
2022/06/07 04:34:06;;;;;;;0.00;0.00;;;12.10;86.20;;;;;;5030522;28;20124;-69
2022/06/07 04:36:32;;;;;;;2.08;1.65;;;12.10;86.10;;;;;;5031069;28;20045;-69
2022/06/07 04:39:01;;;;;;;0.10;0.10;;;12.10;86.20;;;;;;5017634;28;20554;-69
2022/06/07 04:41:26;;;;;;;0.00;0.00;;;12.10;86.20;;;;;;5012190;28;20120;-70
2022/06/07 04:43:53;;;;;;;0.00;0.00;;;12.10;86.00;;;;;;5023436;28;20561;-70
2022/06/07 04:46:20;;;;;;;0.10;0.10;;;12.10;86.20;;;;;;5010762;28;20123;-70
2022/06/07 04:48:47;;;;;;;0.08;0.08;;;12.10;86.60;;;;;;5022825;28;20450;-70
2022/06/07 04:51:15;;;;;;;0.05;0.05;;;12.20;86.40;;;;;;5010737;28;20060;-69
2022/06/07 04:53:41;;;;;;;0.45;0.30;;;12.20;86.80;;;;;;5020857;28;20052;-70
2022/06/07 04:56:14;;;;;;;0.35;0.32;;;12.20;86.90;;;;;;5030605;28;20029;-70
2022/06/07 04:58:40;;;;;;;0.00;0.00;;;12.20;87.10;;;;;;5028639;28;20402;-70
2022/06/07 05:01:10;;;;;;;0.00;0.00;;;12.10;87.60;;;;;;5029554;28;20045;-70
2022/06/07 05:03:36;;;;;;;1.23;0.98;;;12.20;87.20;;;;;;5029897;28;20041;-70
2022/06/07 05:06:01;;;;;;;0.00;0.00;;;12.10;87.30;;;;;;5028603;28;20398;-69
2022/06/07 05:08:27;;;;;;;0.08;0.08;;;12.10;87.60;;;;;;5029840;28;20045;-70
2022/06/07 05:10:54;;;;;;;0.03;0.03;;;12.00;88.00;;;;;;5028466;28;20050;-70
2022/06/07 05:13:21;;;;;;;0.00;0.00;;;12.00;88.20;;;;;;5028198;28;20049;-70
2022/06/07 05:15:54;;;;;;;0.00;0.00;;;11.90;88.60;;;;;;5029826;28;20045;-70
2022/06/07 05:18:19;;;;;;;0.20;0.20;;;11.90;89.20;;;;;;5029819;28;20080;-70
2022/06/07 05:20:45;;;;;;;0.00;0.00;;;11.90;89.70;;;;;;5028352;28;20077;-69
2022/06/07 05:23:11;;;;;;;0.00;0.00;;;11.90;89.90;;;;;;5029479;28;20049;-70
2022/06/07 05:25:36;;;;;;;0.00;0.00;;;11.90;90.20;;;;;;5028664;28;20040;-70
2022/06/07 05:28:02;;;;;;;1.55;0.57;;;11.90;90.80;;;;;;5026729;28;20409;-70
2022/06/07 05:30:28;;;;;;;0.20;0.20;;;11.90;91.20;;;;;;5028450;28;20068;-69
2022/06/07 05:32:53;;;;;;;0.00;0.00;;;11.90;91.20;;;;;;5027613;28;20129;-70
2022/06/07 05:35:19;;;;;;;0.00;0.00;;;11.90;91.30;;;;;;5028454;28;20040;-70
2022/06/07 05:37:44;;;;;;;0.00;0.00;;;12.00;91.20;;;;;;5028181;28;20042;-70
2022/06/07 05:40:11;;;;;;;0.00;0.00;;;12.00;91.40;;;;;;5033723;28;20049;-70
2022/06/07 05:42:36;;;;;;;0.10;0.10;;;11.90;91.50;;;;;;5027996;28;20046;-70
2022/06/07 05:45:02;;;;;;;0.10;0.10;;;11.90;91.70;;;;;;5029182;28;20044;-70
2022/06/07 05:47:28;;;;;;;0.00;0.00;;;11.90;92.00;;;;;;5032013;28;20101;-71
2022/06/07 05:49:53;;;;;;;0.00;0.00;;;11.80;92.40;;;;;;5030599;28;20095;-70
2022/06/07 05:52:19;;;;;;;0.00;0.00;;;11.80;92.50;;;;;;5028842;28;20042;-70
2022/06/07 05:54:45;;;;;;;1.00;0.90;;;11.80;92.60;;;;;;5028656;28;20045;-70
2022/06/07 05:57:11;;;;;;;0.00;0.00;;;11.80;92.70;;;;;;5031635;28;20049;-70
2022/06/07 05:59:36;;;;;;;0.10;0.10;;;11.80;92.50;;;;;;5028975;28;20034;-70
2022/06/07 06:02:02;;;;;;;0.00;0.00;;;11.80;92.40;;;;;;5028556;28;20034;-70
2022/06/07 06:04:28;;;;;;;1.45;0.90;;;11.80;92.50;;;;;;5029132;28;20053;-70
2022/06/07 06:06:56;;;;;;;4.55;0.95;;;11.80;92.40;;;;;;5030402;28;20460;-70
2022/06/07 06:12:06;;;;;;;0.00;0.00;;;11.70;92.50;;;;;;5026406;28;20049;-71
2022/06/07 06:14:33;;;;;;;0.00;0.00;;;11.70;92.40;;;;;;5029364;28;20560;-70
2022/06/07 06:16:59;;;;;;;5.07;1.20;;;11.70;92.40;;;;;;5025272;28;20041;-72
2022/06/07 06:19:24;;;;;;;0.00;0.00;;;11.70;92.40;;;;;;5015212;28;20056;-70
2022/06/07 06:21:50;;;;;;;1.13;1.08;;;11.70;92.60;;;;;;5027981;28;20045;-70
2022/06/07 06:24:17;;;;;;;0.00;0.00;;;11.70;92.50;;;;;;5014591;28;20414;-66
2022/06/07 06:26:43;;;;;;;0.08;0.08;;;11.90;92.60;;;;;;5034913;28;20041;-65
2022/06/07 06:29:10;;;;;;;0.00;0.00;;;11.90;92.50;;;;;;5035570;28;20048;-64
2022/06/07 06:31:37;;;;;;;0.00;0.00;;;12.00;92.40;;;;;;5015564;28;20104;-64
2022/06/07 06:34:03;;;;;;;0.00;0.00;;;12.00;92.40;;;;;;5019592;28;20037;-64
2022/06/07 06:36:30;;;;;;;0.00;0.00;;;12.00;92.40;;;;;;5027711;28;20042;-64
2022/06/07 06:38:57;;;;;;;0.40;0.40;;;12.00;92.40;;;;;;5026441;28;20068;-65
2022/06/07 06:41:28;;;;;;;0.00;0.00;;;12.10;92.50;;;;;;5037367;28;20045;-65
2022/06/07 06:43:56;;;;;;;0.00;0.00;;;12.10;92.40;;;;;;5019119;28;20068;-64
2022/06/07 06:46:31;;;;;;;0.00;0.00;;;12.10;92.30;;;;;;5024482;28;20042;-65
2022/06/07 06:48:57;;;;;;;0.00;0.00;;;12.10;92.30;;;;;;5023336;28;20045;-65
2022/06/07 06:51:25;;;;;;;0.00;0.00;;;12.20;92.20;;;;;;5008148;28;20127;-70
2022/06/07 06:53:52;;;;;;;0.00;0.00;;;12.30;92.10;;;;;;5020034;28;20077;-70
2022/06/07 06:56:20;;;;;;;0.05;0.05;;;12.30;92.20;;;;;;5035758;28;20046;-70
2022/06/07 06:58:47;;;;;;;0.00;0.00;;;12.30;92.10;;;;;;5027955;28;20124;-69
2022/06/07 07:01:29;;;;;;;0.32;0.32;;;12.30;92.00;;;;;;5034718;28;20418;-70
2022/06/07 07:03:55;;;;;;;0.00;0.00;;;12.30;91.60;;;;;;5020306;28;20037;-69
2022/06/07 07:06:22;;;;;;;0.00;0.00;;;12.40;91.70;;;;;;5021207;28;20095;-68
2022/06/07 07:08:49;;;;;;;0.00;0.00;;;12.40;91.70;;;;;;5027640;28;20057;-68
2022/06/07 07:11:21;;;;;;;0.00;0.00;;;12.60;91.50;;;;;;5027467;28;20453;-69
2022/06/07 07:13:49;;;;;;;0.00;0.00;;;12.60;91.50;;;;;;5024058;28;20521;-69
2022/06/07 07:16:18;;;;;;;0.00;0.00;;;12.60;91.40;;;;;;5027148;28;20053;-69
2022/06/07 07:18:44;;;;;;;0.00;0.00;;;12.70;91.10;;;;;;5017493;28;20034;-68
2022/06/07 07:21:14;;;;;;;0.00;0.00;;;12.80;91.00;;;;;;5009552;28;20042;-68
2022/06/07 07:23:39;;;;;;;0.05;0.05;;;12.80;90.90;;;;;;5022888;28;20049;-68
2022/06/07 07:26:19;;;;;;;0.00;0.00;;;12.80;90.70;;;;;;5027400;28;20435;-68
2022/06/07 07:28:45;;;;;;;0.00;0.00;;;13.00;90.40;;;;;;5026856;28;20048;-68
2022/06/07 07:31:14;;;;;;;0.00;0.00;;;12.90;89.70;;;;;;5017452;28;20041;-69
2022/06/07 07:33:40;;;;;;;0.00;0.00;;;13.00;89.60;;;;;;5022499;28;20049;-68
2022/06/07 07:36:07;;;;;;;0.00;0.00;;;13.10;89.50;;;;;;5024838;28;20068;-69
2022/06/07 07:38:34;;;;;;;0.20;0.20;;;13.10;88.70;;;;;;5019914;28;20053;-68
2022/06/07 07:41:00;;;;;;;4.75;1.75;;;13.10;87.90;;;;;;5017257;28;20504;-68
2022/06/07 07:43:25;;;;;;;0.00;0.00;;;13.20;88.10;;;;;;5010960;28;20175;-68
2022/06/07 07:45:55;;;;;;;0.03;0.03;;;13.20;86.50;;;;;;5019821;28;20099;-67
2022/06/07 07:48:22;;;;;;;0.10;0.10;;;13.30;86.40;;;;;;5019046;28;20041;-67
2022/06/07 07:50:49;;;;;;;0.00;0.00;;;13.30;85.60;;;;;;5024910;28;20506;-67
2022/06/07 07:53:15;;;;;;;0.00;0.00;;;13.30;86.00;;;;;;5019627;28;20045;-68
2022/06/07 07:55:50;;;;;;;0.08;0.08;;;13.40;86.30;;;;;;5024269;28;20195;-67
2022/06/07 07:58:17;;;;;;;0.00;0.00;;;13.40;86.40;;;;;;5013852;28;20624;-68
2022/06/07 08:00:45;;;;;;;0.00;0.00;;;13.50;85.50;;;;;;5025991;28;20041;-68
2022/06/07 08:03:11;;;;;;;0.08;0.08;;;13.50;85.20;;;;;;5031083;28;20132;-68
2022/06/07 08:05:36;;;;;;;0.10;0.10;;;13.50;85.30;;;;;;5030776;28;20037;-66
2022/06/07 08:08:03;;;;;;;0.00;0.00;;;13.60;85.10;;;;;;5031045;28;20052;-65
2022/06/07 08:10:29;;;;;;;0.00;0.00;;;13.60;84.30;;;;;;5029594;28;20127;-66
2022/06/07 08:12:59;;;;;;;0.30;0.30;;;13.60;84.70;;;;;;5045451;28;20096;-66
2022/06/07 08:15:25;;;;;;;0.00;0.00;;;13.50;85.10;;;;;;5029946;28;20167;-67
2022/06/07 08:17:52;;;;;;;0.00;0.00;;;13.50;84.90;;;;;;5020569;28;20522;-66
2022/06/07 08:20:19;;;;;;;0.03;0.03;;;13.50;84.50;;;;;;5011681;28;20553;-66
2022/06/07 08:22:45;;;;;;;0.00;0.00;;;13.40;84.10;;;;;;5015922;28;20103;-67
2022/06/07 08:25:10;;;;;;;0.00;0.00;;;13.60;84.50;;;;;;5023047;28;20041;-67
2022/06/07 08:27:37;;;;;;;0.15;0.15;;;13.50;84.90;;;;;;5021390;28;20843;-67
2022/06/07 08:30:05;;;;;;;0.00;0.00;;;13.50;84.80;;;;;;5020289;28;20041;-66
2022/06/07 08:32:31;;;;;;;0.00;0.00;;;13.50;85.10;;;;;;5028882;28;20061;-67
2022/06/07 08:37:41;;;;;;;0.00;0.00;;;13.60;85.60;;;;;;5028010;28;20042;-68
2022/06/07 08:40:29;;;;;;;0.00;0.00;;;13.80;85.60;;;;;;5029187;28;20056;-68
2022/06/07 08:42:58;;;;;;;0.00;0.00;;;13.80;85.50;;;;;;5010967;28;20049;-67
2022/06/07 08:45:32;;;;;;;0.00;0.00;;;14.00;85.00;;;;;;5014646;28;20049;-68
2022/06/07 08:48:05;;;;;;;23.20;1.88;;;14.00;84.70;;;;;;5024722;28;20112;-67
2022/06/07 08:50:40;;;;;;;0.00;0.00;;;14.10;84.50;;;;;;5029690;28;20045;-67
2022/06/07 08:53:17;;;;;;;0.00;0.00;;;14.20;84.30;;;;;;5029150;28;20136;-67
2022/06/07 08:55:56;;;;;;;0.00;0.00;;;14.20;82.60;;;;;;5029143;28;20044;-67
2022/06/07 08:58:33;;;;;;;0.10;0.10;;;14.20;82.20;;;;;;5027453;28;20053;-67
2022/06/07 09:01:06;;;;;;;0.00;0.00;;;14.40;82.10;;;;;;5032966;28;20502;-67
2022/06/07 09:03:51;;;;;;;0.00;0.00;;;14.50;80.80;;;;;;5032390;28;20041;-67
2022/06/07 09:06:20;;;;;;;0.10;0.10;;;14.50;79.80;;;;;;5028348;28;20055;-66
2022/06/07 09:08:51;;;;;;;0.00;0.00;;;14.50;78.30;;;;;;5029360;28;20037;-66
2022/06/07 09:14:24;;;;;;;1.83;1.15;;;14.40;77.40;;;;;;5026401;28;20084;-67
2022/06/07 09:16:50;;;;;;;0.00;0.00;;;14.40;78.80;;;;;;5029280;28;20040;-67
2022/06/07 09:19:20;;;;;;;0.00;0.00;;;14.40;77.30;;;;;;5030032;28;20057;-67
2022/06/07 09:21:46;;;;;;;0.15;0.15;;;14.40;75.20;;;;;;5035847;28;20053;-67
2022/06/07 09:24:21;;;;;;;0.10;0.10;;;14.40;75.80;;;;;;5024015;28;20046;-66
2022/06/07 09:26:47;;;;;;;0.00;0.00;;;14.40;75.20;;;;;;5028686;28;20037;-67
2022/06/07 09:29:22;;;;;;;0.00;0.00;;;14.40;75.30;;;;;;5028322;28;20053;-67
2022/06/07 09:31:49;;;;;;;0.00;0.00;;;14.40;75.20;;;;;;5011802;28;20180;-68
2022/06/07 09:34:27;;;;;;;0.00;0.00;;;14.40;76.10;;;;;;5010751;28;20037;-68
2022/06/07 09:37:02;;;;;;;0.00;0.00;;;14.40;76.40;;;;;;5017794;28;20053;-69
2022/06/07 09:39:36;;;;;;;0.20;0.20;;;14.50;76.80;;;;;;5024489;28;20058;-66
2022/06/07 09:42:30;;;;;;;0.00;0.00;;;14.60;76.00;;;;;;5028143;28;20056;-66
2022/06/07 09:45:02;;;;;;;0.00;0.00;;;14.60;75.50;;;;;;5028010;28;20466;-66
2022/06/07 09:47:30;;;;;;;0.00;0.00;;;14.70;75.60;;;;;;5030399;28;20510;-66
2022/06/07 09:50:04;;;;;;;0.03;0.03;;;14.80;75.70;;;;;;5029389;28;20088;-66
2022/06/07 09:52:41;;;;;;;1.27;0.70;;;14.90;76.00;;;;;;5034131;28;20088;-66
2022/06/07 09:55:31;;;;;;;4.68;0.82;;;15.00;75.70;;;;;;5032199;28;20648;-65
2022/06/07 09:58:25;;;;;;;0.00;0.00;;;15.00;73.00;;;;;;5027354;28;20060;-66
2022/06/07 10:01:00;;;;;;;0.00;0.00;;;15.00;73.70;;;;;;5028038;28;20091;-66
2022/06/07 10:03:42;;;;;;;0.00;0.00;;;14.90;73.50;;;;;;5027795;28;20041;-65
2022/06/07 10:06:08;;;;;;;0.00;0.00;;;14.80;72.80;;;;;;5040308;28;20143;-67
2022/06/07 10:08:36;;;;;;;0.00;0.00;;;14.90;74.00;;;;;;5044362;28;20123;-67
2022/06/07 10:11:23;;;;;;;0.00;0.00;;;14.80;74.80;;;;;;5028520;28;20110;-68
2022/06/07 10:13:57;;;;;;;0.00;0.00;;;14.80;74.80;;;;;;5028476;28;20049;-67
2022/06/07 10:16:51;;;;;;;0.00;0.00;;;14.90;75.10;;;;;;5029804;28;20121;-68
2022/06/07 10:19:52;;;;;;;0.00;0.00;;;14.90;74.70;;;;;;5029959;28;20512;-68
2022/06/07 10:22:28;;;;;;;0.03;0.03;;;14.90;74.20;;;;;;5032886;28;20049;-67
2022/06/07 10:25:09;;;;;;;0.00;0.00;;;14.80;72.80;;;;;;5036306;28;20040;-67
2022/06/07 10:27:56;;;;;;;0.15;0.15;;;14.80;74.80;;;;;;5041384;28;20513;-67
2022/06/07 10:30:38;;;;;;;0.00;0.00;;;14.80;74.20;;;;;;5028577;28;20098;-67
2022/06/07 10:33:06;;;;;;;;;;;14.70;72.50;;;;;;5029222;28;20053;-67
2022/06/07 10:35:41;;;;;;;0.00;0.00;;;14.70;73.40;;;;;;5038241;28;20023;-69
2022/06/07 10:38:39;;;;;;;0.00;0.00;;;14.60;74.00;;;;;;5048746;28;20095;-68
2022/06/07 10:41:24;;;;;;;0.05;0.05;;;14.60;74.40;;;;;;5045616;28;20077;-67
2022/06/07 10:44:01;;;;;;;0.00;0.00;;;14.60;72.90;;;;;;5028779;28;20091;-68
2022/06/07 10:46:29;;;;;;;0.00;0.00;;;14.60;73.30;;;;;;5046831;28;20162;-68
2022/06/07 10:49:19;;;;;;;0.00;0.00;;;14.70;74.10;;;;;;5043919;28;20045;-68
2022/06/07 10:54:55;;;;;;;0.13;0.13;;;14.90;74.60;;;;;;5031922;28;20490;-67
2022/06/07 10:57:30;;;;;;;0.00;0.00;;;15.00;75.00;;;;;;5029297;28;20053;-69
2022/06/07 11:00:00;;;;;;;0.00;0.00;;;15.00;74.20;;;;;;5033099;28;20541;-65
2022/06/07 11:02:37;;;;;;;0.00;0.00;;;15.00;72.90;;;;;;5032455;28;20449;-68
2022/06/07 11:10:50;;;;;;;0.45;0.45;;;15.10;72.70;;;;;;5032510;28;20045;-67
2022/06/07 11:13:31;;;;;;;0.00;0.00;;;15.10;73.10;;;;;;5032624;28;20045;-68
2022/06/07 11:16:27;;;;;;;0.00;0.00;;;15.10;74.40;;;;;;5032323;28;20498;-68
2022/06/07 11:18:53;;;;;;;5.57;2.30;;;15.10;74.60;;;;;;5040661;28;20075;-67
2022/06/07 11:21:29;;;;;;;0.00;0.00;;;15.20;75.20;;;;;;5052361;28;20073;-68
2022/06/07 11:24:17;;;;;;;0.00;0.00;;;15.20;73.20;;;;;;5032795;28;20556;-66
2022/06/07 11:26:52;;;;;;;0.00;0.00;;;15.20;73.70;;;;;;5027091;28;20034;-67
2022/06/07 11:29:33;;;;;;;0.00;0.00;;;15.30;74.20;;;;;;5026606;28;20058;-67
2022/06/07 11:32:02;;;;;;;0.00;0.00;;;15.40;73.50;;;;;;5031299;28;20037;-67
2022/06/07 11:34:37;;;;;;;0.00;0.00;;;15.40;72.90;;;;;;5027090;28;20037;-68
2022/06/07 11:37:09;;;;;;;0.05;0.05;;;15.40;72.80;;;;;;5031348;28;20048;-68
2022/06/07 11:39:40;;;;;;;0.00;0.00;;;15.60;73.60;;;;;;5030813;28;20102;-67
2022/06/07 11:42:28;;;;;;;0.00;0.00;;;15.80;72.20;;;;;;5030610;28;20053;-67
2022/06/07 11:45:03;;;;;;;0.45;0.45;;;16.00;70.90;;;;;;5029737;28;20041;-66
2022/06/07 11:47:35;;;;;;;0.40;0.40;;;16.10;71.10;;;;;;5031330;28;20041;-66
2022/06/07 11:50:11;;;;;;;0.63;0.63;;;16.10;70.60;;;;;;5030499;28;20037;-66
2022/06/07 11:52:54;;;;;;;0.20;0.20;;;16.00;68.90;;;;;;5029494;28;20069;-66
2022/06/07 11:55:23;;;;;;;0.00;0.00;;;16.00;69.00;;;;;;5025394;28;20037;-66
2022/06/07 11:58:00;;;;;;;0.38;0.38;;;16.00;68.80;;;;;;5030123;28;20029;-67
2022/06/07 12:00:29;;;;;;;0.00;0.00;;;16.00;69.70;;;;;;5034913;28;20045;-66
2022/06/07 12:03:00;;;;;;;0.63;0.63;;;16.00;71.00;;;;;;5026773;28;20387;-66
2022/06/07 12:05:30;;;;;;;0.00;0.00;;;15.90;70.20;;;;;;5031697;28;20053;-66
2022/06/07 12:08:06;;;;;;;0.00;0.00;;;15.90;70.90;;;;;;5011688;28;20119;-69
2022/06/07 12:10:38;;;;;;;0.10;0.10;;;15.90;71.10;;;;;;5027999;28;20049;-68
2022/06/07 12:13:07;;;;;;;0.00;0.00;;;15.90;71.70;;;;;;5049553;28;20052;-68
2022/06/07 12:15:44;;;;;;;0.00;0.00;;;15.90;71.70;;;;;;5033670;28;20132;-69
2022/06/07 12:18:25;;;;;;;0.10;0.10;;;16.00;71.10;;;;;;5034515;28;20068;-69
2022/06/07 12:21:04;;;;;;;0.10;0.10;;;15.80;71.10;;;;;;5051470;28;20045;-69
2022/06/07 12:23:37;;;;;;;0.00;0.00;;;15.70;70.50;;;;;;5042901;28;20041;-68
2022/06/07 12:26:06;;;;;;;0.10;0.10;;;15.80;70.80;;;;;;5029852;28;20128;-68
2022/06/07 12:28:37;;;;;;;0.00;0.00;;;15.90;71.30;;;;;;5031007;28;20128;-66
2022/06/07 12:31:15;;;;;;;0.08;0.08;;;16.00;71.10;;;;;;5031216;28;20053;-67
2022/06/07 12:33:50;;;;;;;0.00;0.00;;;16.00;70.30;;;;;;5028070;28;20498;-69
2022/06/07 12:36:31;;;;;;;0.00;0.00;;;16.10;70.80;;;;;;5028211;28;20535;-67
2022/06/07 12:39:00;;;;;;;0.10;0.10;;;16.00;68.20;;;;;;5026342;28;20128;-67
2022/06/07 12:41:28;;;;;;;0.00;0.00;;;15.90;68.50;;;;;;5029333;28;20136;-69
2022/06/07 12:43:57;;;;;;;0.00;0.00;;;15.90;70.40;;;;;;5029009;28;20042;-68
2022/06/07 12:46:27;;;;;;;0.03;0.03;;;16.00;71.20;;;;;;5028106;28;20045;-69
2022/06/07 12:48:53;;;;;;;0.88;0.82;;;16.00;72.00;;;;;;5028500;28;20049;-69
2022/06/07 12:51:30;;;;;;;0.00;0.00;;;16.20;72.20;;;;;;5025181;28;20124;-69
2022/06/07 12:54:17;;;;;;;0.10;0.10;;;16.40;71.60;;;;;;5027215;28;20072;-69
2022/06/07 12:56:46;;;;;;;0.00;0.00;;;16.40;71.70;;;;;;5031935;28;20045;-68
2022/06/07 12:59:41;;;;;;;0.00;0.00;;;16.50;72.40;;;;;;5027456;28;20049;-69
2022/06/07 13:02:16;;;;;;;0.00;0.00;;;16.30;71.90;;;;;;5027304;28;20607;-69
2022/06/07 13:04:51;;;;;;;0.00;0.00;;;16.30;71.70;;;;;;5030588;28;20049;-68
2022/06/07 13:07:30;;;;;;;0.00;0.00;;;16.30;72.20;;;;;;5025012;28;20050;-68
2022/06/07 13:10:02;;;;;;;0.00;0.00;;;16.00;73.20;;;;;;5034773;28;20065;-69
2022/06/07 13:12:31;;;;;;;0.00;0.00;;;16.00;72.60;;;;;;5029997;28;20119;-68
2022/06/07 13:14:59;;;;;;;0.00;0.00;;;15.90;73.30;;;;;;5020747;28;20041;-70
2022/06/07 13:17:31;;;;;;;0.00;0.00;;;16.00;72.90;;;;;;5010535;28;20135;-70
2022/06/07 13:19:57;;;;;;;0.00;0.00;;;16.00;71.80;;;;;;5021233;28;20052;-71
2022/06/07 13:22:24;;;;;;;0.00;0.00;;;15.90;71.80;;;;;;5032254;28;20585;-73
2022/06/07 13:25:03;;;;;;;0.20;0.20;;;15.90;73.10;;;;;;5033195;28;20048;-69
2022/06/07 13:27:45;;;;;;;0.00;0.00;;;15.90;73.80;;;;;;5029758;28;20139;-68
2022/06/07 13:30:20;;;;;;;0.00;0.00;;;15.70;73.80;;;;;;5031519;28;20128;-69